KELD/ELD METAR and TAF weather

Enter ICAO airport designator
Station Type Date Time Source
KELD METAR 2021/10/24 20:53 UTC NOAA

KELD 242053Z AUTO 16010G18KT 10SM FEW042 FEW060 29/19 A2982 RMK AO2 SLP092 T02940194 56024


Station Type Date Time Source
KELD Decoded METAR 2021/10/24 20:53 UTC NOAA

SOUTH ARKANSAS REGIONAL, AR, United States (KELD) 33-13N 092-49W 81M
Oct 24, 2021 - 04:53 PM EDT / 2021.10.24 2053 UTC
Wind: from the SSE (160 degrees) at 12 MPH (10 KT) gusting to 21 MPH (18 KT):0
Visibility: 10 mile(s):0
Sky conditions: mostly clear
Temperature: 84.9 F (29.4 C)
Dew Point: 66.9 F (19.4 C)
Relative Humidity: 54%
Pressure (altimeter): 29.82 in. Hg (1009 hPa)
Pressure tendency: 0.07 inches (2.4 hPa) lower than three hours ago
ob: KELD 242053Z AUTO 16010G18KT 10SM FEW042 FEW060 29/19 A2982 RMK AO2 SLP092 T02940194 56024
cycle: 21

Station Type Date Time Source
KELD TAF 2021/10/24 18:24 UTC NOAA

TAF KELD 241720Z 2418/2518 18010G18KT P6SM SCT040
FM250000 17007KT P6SM SCT050
TEMPO 2504/2506 BKN040
FM250600 20007KT P6SM VCTS BKN030CB
TEMPO 2508/2512 BKN015CB
FM251200 VRB05KT P6SM VCTS BKN015CB
FM251500 34005KT P6SM SCT035

Example: see airport list